VA50 weather

Woods Farm Airstrip
Hanover, Virginia, United States

Public forecast

Using degrees Fahrenheit for public forecast. Weather courtesy of forecast.io.

METAR (pilot weather report)

Closest report is Hanover County Municipal Airport, 6.4 nm (11.8 km) W. Retrieved 2019/06/25 14:54 UTC (38 minutes ago):

KOFP 251454Z AUTO VRB05KT 10SM SCT031 BKN040 OVC070 29/20 A2992 RMK AO2 SLP130 T02890200 51018

TAF (pilot weather forecast)

Closest forecast is Richmond International Airport, 12.6 nm (23.4 km) S. Retrieved 2019/06/25 12:22 UTC (3 hours ago):

TAF KRIC 251120Z 2512/2612 27009KT P6SM SCT250 FM251400 32007KT P6SM SCT040 BKN250 FM260000 26004KT P6SM SKC